createdAt,value
2019-03-25T00:01:40.046Z,4.43
2019-03-25T00:04:12.797Z,3.60
2019-03-25T00:06:46.166Z,4.63
2019-03-25T00:09:18.921Z,4.57
2019-03-25T00:11:51.703Z,5.10
2019-03-25T00:14:24.304Z,4.03
2019-03-25T00:16:57.267Z,5.70
2019-03-25T00:19:29.591Z,5.00
2019-03-25T00:22:02.188Z,3.67
2019-03-25T00:24:39.012Z,5.10
2019-03-25T00:27:08.327Z,4.20
2019-03-25T00:29:40.522Z,5.47
2019-03-25T00:32:13.279Z,5.60
2019-03-25T00:34:45.425Z,4.43
2019-03-25T00:37:17.587Z,3.67
2019-03-25T00:39:50.328Z,3.70
2019-03-25T00:42:22.810Z,3.03
2019-03-25T00:44:55.195Z,3.30
2019-03-25T00:47:28.804Z,3.80
2019-03-25T00:50:01.199Z,4.27
2019-03-25T00:52:33.416Z,3.93
2019-03-25T00:55:05.722Z,3.70
2019-03-25T00:57:37.957Z,4.30
2019-03-25T01:00:11.553Z,3.73
2019-03-25T01:02:46.703Z,3.50
2019-03-25T01:05:19.739Z,4.13
2019-03-25T01:07:52.225Z,3.57
2019-03-25T01:10:24.571Z,3.40
2019-03-25T01:12:57.362Z,3.23
2019-03-25T01:15:29.686Z,3.20
2019-03-25T01:18:02.246Z,3.23
2019-03-25T01:20:34.451Z,3.47
2019-03-25T01:23:06.848Z,3.20
2019-03-25T01:25:39.079Z,3.80
2019-03-25T01:28:11.408Z,3.60
2019-03-25T01:30:43.576Z,4.47
2019-03-25T01:33:15.716Z,3.77
2019-03-25T01:35:47.959Z,3.70
2019-03-25T01:38:20.200Z,3.70
2019-03-25T01:40:52.482Z,4.17
2019-03-25T01:43:24.726Z,3.90
2019-03-25T01:45:56.998Z,3.00
2019-03-25T01:48:29.167Z,3.63
2019-03-25T01:51:01.877Z,3.43
2019-03-25T01:53:34.124Z,3.57
2019-03-25T01:56:06.367Z,3.30
2019-03-25T01:58:38.380Z,2.93
2019-03-25T02:01:10.663Z,3.90
2019-03-25T02:03:44.130Z,3.70
2019-03-25T02:06:16.373Z,2.87
2019-03-25T02:08:49.769Z,2.93
2019-03-25T02:11:22.427Z,3.67
2019-03-25T02:13:55.127Z,2.83
2019-03-25T02:16:27.402Z,2.90
2019-03-25T02:18:59.680Z,3.23
2019-03-25T02:21:31.924Z,4.50
2019-03-25T02:24:04.059Z,3.20
2019-03-25T02:26:36.246Z,3.23
2019-03-25T02:29:08.496Z,3.30
2019-03-25T02:31:40.779Z,3.37
2019-03-25T02:34:13.037Z,3.37
2019-03-25T02:36:45.341Z,3.37
2019-03-25T02:39:17.602Z,2.97
2019-03-25T02:41:49.849Z,3.40
2019-03-25T02:44:22.052Z,3.20
2019-03-25T02:46:54.416Z,3.80
2019-03-25T02:49:26.643Z,3.73
2019-03-25T02:51:58.896Z,3.93
2019-03-25T02:54:31.149Z,3.10
2019-03-25T02:57:04.729Z,3.93
2019-03-25T02:59:37.008Z,3.70
2019-03-25T03:02:09.235Z,3.93
2019-03-25T03:04:42.092Z,4.20
2019-03-25T03:07:16.414Z,3.87
2019-03-25T03:09:48.603Z,6.07
2019-03-25T03:12:21.983Z,6.43
2019-03-25T03:14:54.126Z,5.30
2019-03-25T03:17:27.770Z,4.73
2019-03-25T03:20:00.083Z,3.90
2019-03-25T03:22:32.507Z,4.37
2019-03-25T03:25:06.270Z,4.67
2019-03-25T03:27:38.490Z,3.77
2019-03-25T03:30:11.825Z,4.63
2019-03-25T03:32:44.000Z,4.93
2019-03-25T03:35:16.361Z,4.73
2019-03-25T03:37:49.520Z,3.97
2019-03-25T03:40:21.946Z,4.03
2019-03-25T03:42:55.267Z,3.90
2019-03-25T03:45:30.440Z,4.03
2019-03-25T03:48:08.099Z,6.10
2019-03-25T03:50:42.729Z,6.23
2019-03-25T03:53:18.056Z,5.50
2019-03-25T03:56:11.563Z,5.40
2019-03-25T03:58:32.584Z,5.23
2019-03-25T04:01:06.313Z,6.63
2019-03-25T04:03:40.662Z,8.13
2019-03-25T04:06:13.730Z,6.80
2019-03-25T04:08:45.935Z,6.80
2019-03-25T04:11:30.334Z,5.70
2019-03-25T04:14:03.271Z,6.00
2019-03-25T04:16:37.154Z,4.70
2019-03-25T04:19:11.665Z,4.33
2019-03-25T04:21:45.231Z,3.87
2019-03-25T04:24:17.446Z,3.87
2019-03-25T04:26:51.057Z,4.47
2019-03-25T04:29:23.276Z,5.40
2019-03-25T04:31:56.558Z,5.13
2019-03-25T04:34:31.390Z,4.90
2019-03-25T04:37:03.519Z,3.93
2019-03-25T04:39:35.627Z,4.53
2019-03-25T04:42:07.779Z,3.90
2019-03-25T04:44:40.044Z,3.90
2019-03-25T04:47:12.175Z,4.00
2019-03-25T04:49:45.273Z,3.83
2019-03-25T04:52:18.352Z,3.27
2019-03-25T04:54:50.500Z,3.40
2019-03-25T04:57:23.357Z,3.67
2019-03-25T04:59:56.869Z,4.07
2019-03-25T05:02:29.668Z,4.23
2019-03-25T05:05:04.119Z,3.50
2019-03-25T05:07:36.560Z,7.60
2019-03-25T05:10:11.630Z,7.20
2019-03-25T05:12:47.176Z,5.97
2019-03-25T05:15:19.447Z,6.17
2019-03-25T05:17:52.992Z,6.17
2019-03-25T05:20:25.263Z,7.67
2019-03-25T05:22:57.529Z,5.37
2019-03-25T05:25:30.108Z,5.27
2019-03-25T05:28:02.249Z,4.87
2019-03-25T05:30:34.378Z,4.47
2019-03-25T05:33:06.707Z,4.03
2019-03-25T05:35:40.096Z,4.60
2019-03-25T05:38:12.164Z,4.57
2019-03-25T05:40:44.842Z,4.33
2019-03-25T05:43:17.101Z,6.67
2019-03-25T05:45:49.787Z,9.63
2019-03-25T05:48:22.783Z,8.80
2019-03-25T05:50:56.222Z,6.47
2019-03-25T05:53:28.381Z,5.17
2019-03-25T05:56:00.538Z,4.83
2019-03-25T05:58:32.860Z,4.30
2019-03-25T06:01:05.183Z,4.40
2019-03-25T06:03:39.205Z,3.83
2019-03-25T06:06:12.128Z,4.60
2019-03-25T06:08:44.570Z,5.27
2019-03-25T06:11:16.947Z,3.67
2019-03-25T06:13:52.224Z,3.70
2019-03-25T06:16:25.969Z,4.73
2019-03-25T06:18:58.841Z,4.63
2019-03-25T06:21:32.285Z,4.97
2019-03-25T06:24:05.084Z,4.00
2019-03-25T06:26:37.873Z,3.37
2019-03-25T06:29:10.388Z,4.37
2019-03-25T06:31:42.894Z,4.63
2019-03-25T06:34:15.214Z,4.10
2019-03-25T06:36:47.552Z,4.67
2019-03-25T06:39:20.827Z,6.00
2019-03-25T06:41:53.248Z,4.87
2019-03-25T06:44:25.392Z,4.10
2019-03-25T06:46:58.156Z,4.87
2019-03-25T06:49:30.822Z,4.13
2019-03-25T06:52:03.028Z,5.07
2019-03-25T06:54:35.358Z,4.83
2019-03-25T06:57:07.773Z,4.63
2019-03-25T06:59:40.030Z,3.97
2019-03-25T07:02:13.385Z,3.87
2019-03-25T07:04:45.637Z,6.80
2019-03-25T07:07:18.015Z,7.73
2019-03-25T07:09:50.247Z,9.50
2019-03-25T07:12:23.535Z,12.60
2019-03-25T07:14:55.946Z,6.07
2019-03-25T07:17:31.074Z,6.43
2019-03-25T07:20:03.285Z,6.37
2019-03-25T07:22:35.987Z,5.30
2019-03-25T07:25:08.336Z,6.00
2019-03-25T07:27:40.548Z,6.03
2019-03-25T07:30:13.175Z,6.33
2019-03-25T07:32:46.017Z,5.63
2019-03-25T07:35:18.172Z,5.33
2019-03-25T07:37:50.484Z,5.63
2019-03-25T07:40:22.768Z,6.00
2019-03-25T07:42:55.089Z,4.73
2019-03-25T07:45:27.197Z,5.00
2019-03-25T07:47:59.437Z,4.83
2019-03-25T07:50:31.816Z,4.80
2019-03-25T07:53:05.212Z,5.93
2019-03-25T07:55:37.543Z,4.57
2019-03-25T07:58:09.892Z,5.10
2019-03-25T08:00:42.470Z,5.13
2019-03-25T08:03:14.514Z,5.00
2019-03-25T08:05:46.660Z,4.90
2019-03-25T08:08:21.171Z,5.10
2019-03-25T08:10:53.465Z,4.83
2019-03-25T08:13:25.744Z,5.27
2019-03-25T08:15:58.243Z,4.83
2019-03-25T08:18:30.540Z,5.50
2019-03-25T08:21:02.939Z,5.30
2019-03-25T08:23:35.216Z,5.60
2019-03-25T08:26:07.429Z,5.27
2019-03-25T08:28:40.184Z,5.63
2019-03-25T08:31:12.441Z,5.47
2019-03-25T08:33:44.657Z,5.30
2019-03-25T08:36:19.447Z,4.80
2019-03-25T08:38:51.966Z,5.63
2019-03-25T08:41:24.355Z,5.13
2019-03-25T08:43:56.540Z,4.80
2019-03-25T08:46:28.848Z,4.43
2019-03-25T08:49:01.039Z,4.20
2019-03-25T08:51:34.007Z,4.63
2019-03-25T08:54:06.002Z,5.17
2019-03-25T08:56:38.240Z,4.63
2019-03-25T08:59:11.834Z,5.20
2019-03-25T09:01:44.005Z,4.20
2019-03-25T09:04:16.161Z,3.70
2019-03-25T09:06:48.469Z,3.73
2019-03-25T09:09:20.661Z,4.17
2019-03-25T09:11:53.604Z,4.17
2019-03-25T09:14:25.861Z,5.00
2019-03-25T09:17:00.585Z,5.20
2019-03-25T09:19:35.147Z,4.97
2019-03-25T09:22:09.477Z,4.70
2019-03-25T09:24:42.282Z,5.10
2019-03-25T09:27:14.540Z,4.67
2019-03-25T09:29:46.918Z,4.23
2019-03-25T09:32:19.117Z,5.10
2019-03-25T09:34:51.462Z,5.33
2019-03-25T09:37:23.787Z,5.07
2019-03-25T09:39:56.050Z,5.60
2019-03-25T09:42:28.150Z,4.80
2019-03-25T09:45:00.375Z,4.60
2019-03-25T09:47:32.810Z,5.10
2019-03-25T09:50:05.372Z,4.60
2019-03-25T09:52:39.049Z,4.83
2019-03-25T09:55:11.653Z,4.00
2019-03-25T09:57:44.395Z,4.80
2019-03-25T10:00:16.695Z,4.67
2019-03-25T10:02:49.422Z,4.77
2019-03-25T10:05:21.564Z,4.37
2019-03-25T10:07:53.693Z,4.30
2019-03-25T10:10:25.792Z,4.23
2019-03-25T10:12:58.163Z,3.80
2019-03-25T10:15:31.112Z,4.10
2019-03-25T10:18:03.206Z,3.67
2019-03-25T10:20:37.193Z,4.53
2019-03-25T10:23:09.227Z,3.43
2019-03-25T10:25:42.696Z,4.00
2019-03-25T10:28:14.868Z,3.27
2019-03-25T10:30:47.551Z,3.63
2019-03-25T10:33:20.494Z,3.67
2019-03-25T10:35:53.989Z,3.23
2019-03-25T10:38:26.751Z,5.90
2019-03-25T10:40:59.213Z,6.00
2019-03-25T10:43:31.828Z,4.77
2019-03-25T10:46:03.858Z,4.67
2019-03-25T10:48:36.021Z,4.13
2019-03-25T10:51:10.935Z,4.13
2019-03-25T10:53:43.181Z,4.10
2019-03-25T10:56:15.175Z,4.47
2019-03-25T10:58:50.705Z,4.07
2019-03-25T11:01:23.482Z,4.53
2019-03-25T11:03:56.254Z,4.40
2019-03-25T11:06:28.437Z,4.27
2019-03-25T11:09:01.349Z,4.73
2019-03-25T11:11:35.562Z,4.97
2019-03-25T11:14:08.124Z,4.90
2019-03-25T11:16:41.585Z,4.40
2019-03-25T11:19:13.771Z,4.73
2019-03-25T11:21:46.691Z,5.23
2019-03-25T11:24:20.416Z,5.17
2019-03-25T11:26:52.421Z,5.00
2019-03-25T11:29:25.164Z,4.70
2019-03-25T11:31:58.515Z,5.40
2019-03-25T11:34:30.741Z,4.07
2019-03-25T11:37:04.066Z,4.57
2019-03-25T11:39:37.385Z,5.10
2019-03-25T11:42:10.366Z,4.80
2019-03-25T11:44:43.000Z,4.47
2019-03-25T11:47:18.270Z,4.10
2019-03-25T11:49:50.561Z,4.70
2019-03-25T11:52:22.657Z,3.50
2019-03-25T11:54:57.210Z,3.57
2019-03-25T11:57:29.392Z,3.63
2019-03-25T12:00:02.248Z,4.33
2019-03-25T12:02:35.383Z,4.10
2019-03-25T12:05:09.310Z,4.20
2019-03-25T12:07:43.259Z,3.60
2019-03-25T12:10:16.351Z,3.60
2019-03-25T12:12:49.108Z,3.63
2019-03-25T12:15:21.997Z,4.10
2019-03-25T12:17:54.259Z,3.90
2019-03-25T12:20:26.477Z,3.47
2019-03-25T12:22:58.621Z,4.30
2019-03-25T12:25:32.220Z,3.57
2019-03-25T12:28:05.458Z,4.07
2019-03-25T12:30:37.971Z,4.73
2019-03-25T12:33:10.227Z,3.40
2019-03-25T12:35:43.848Z,3.50
2019-03-25T12:38:16.732Z,3.73
2019-03-25T12:40:49.016Z,3.87
2019-03-25T12:43:21.221Z,3.53
2019-03-25T12:45:53.852Z,4.20
2019-03-25T12:48:26.671Z,3.90
2019-03-25T12:50:59.311Z,3.57
2019-03-25T12:53:31.425Z,3.17
2019-03-25T12:56:03.636Z,4.20
2019-03-25T12:58:36.265Z,3.40
2019-03-25T13:01:08.625Z,3.90
2019-03-25T13:03:41.039Z,4.33
2019-03-25T13:06:13.474Z,3.67
2019-03-25T13:08:45.689Z,3.50
2019-03-25T13:11:18.323Z,4.20
2019-03-25T13:13:52.128Z,3.47
2019-03-25T13:16:24.283Z,2.83
2019-03-25T13:18:56.663Z,3.63
2019-03-25T13:21:30.092Z,3.70
2019-03-25T13:24:02.186Z,4.20
2019-03-25T13:26:36.862Z,4.27
2019-03-25T13:29:09.061Z,4.17
2019-03-25T13:31:41.342Z,3.40
2019-03-25T13:34:13.539Z,3.20
2019-03-25T13:36:46.950Z,3.80
2019-03-25T13:39:20.415Z,3.87
2019-03-25T13:41:52.824Z,3.23
2019-03-25T13:44:25.230Z,3.60
2019-03-25T13:46:57.513Z,3.50
2019-03-25T13:49:29.795Z,2.70
2019-03-25T13:52:03.323Z,2.70
2019-03-25T13:54:35.554Z,2.70
2019-03-25T13:57:08.831Z,2.57
2019-03-25T13:59:41.086Z,2.60
2019-03-25T14:02:13.424Z,2.70
2019-03-25T14:04:45.636Z,2.60
2019-03-25T14:07:17.867Z,2.73
2019-03-25T14:09:50.118Z,2.70
2019-03-25T14:12:22.531Z,2.47
2019-03-25T14:14:54.905Z,21.40
2019-03-25T14:17:28.842Z,2.60
2019-03-25T14:20:01.271Z,2.43
2019-03-25T14:22:33.792Z,2.43
2019-03-25T14:25:06.530Z,3.30
2019-03-25T14:27:38.918Z,3.17
2019-03-25T14:30:14.830Z,10.73
2019-03-25T14:32:45.877Z,14.77
2019-03-25T14:35:18.129Z,13.53
2019-03-25T14:37:50.454Z,4.73
2019-03-25T14:40:22.577Z,3.60
2019-03-25T14:42:58.071Z,2.93
2019-03-25T14:45:30.242Z,2.97
2019-03-25T14:48:02.480Z,2.40
2019-03-25T14:50:34.774Z,1.77
2019-03-25T14:53:07.165Z,1.90
2019-03-25T14:55:39.354Z,2.03
2019-03-25T14:58:11.725Z,2.13
2019-03-25T15:00:45.071Z,2.00
2019-03-25T15:03:17.300Z,2.20
2019-03-25T15:05:49.660Z,2.77
2019-03-25T15:08:21.864Z,1.97
2019-03-25T15:10:54.069Z,1.20
2019-03-25T15:13:26.379Z,2.60
2019-03-25T15:15:58.800Z,2.90
2019-03-25T15:18:33.944Z,3.03
2019-03-25T15:21:08.169Z,1.73
2019-03-25T15:23:40.599Z,1.57
2019-03-25T15:26:13.208Z,1.77
2019-03-25T15:28:47.908Z,1.20
2019-03-25T15:31:21.264Z,1.30
2019-03-25T15:33:53.539Z,2.50
2019-03-25T15:36:25.784Z,2.30
2019-03-25T15:38:58.318Z,2.20
2019-03-25T15:41:31.433Z,2.30
2019-03-25T15:44:03.699Z,1.50
2019-03-25T15:46:38.174Z,2.17
2019-03-25T15:49:10.585Z,2.37
2019-03-25T15:51:43.871Z,1.90
2019-03-25T15:54:16.408Z,2.07
2019-03-25T15:56:48.690Z,1.30
2019-03-25T15:59:22.106Z,1.40
2019-03-25T16:01:54.322Z,2.17
2019-03-25T16:04:26.696Z,2.73
2019-03-25T16:06:58.987Z,3.20
2019-03-25T16:09:31.656Z,2.23
2019-03-25T16:12:05.639Z,2.10
2019-03-25T16:14:37.865Z,2.50
2019-03-25T16:17:10.189Z,2.00
2019-03-25T16:19:42.291Z,1.60
2019-03-25T16:22:14.495Z,1.47
2019-03-25T16:24:46.687Z,1.50
2019-03-25T16:27:18.937Z,4.03
2019-03-25T16:29:51.178Z,12.23
2019-03-25T16:32:23.748Z,9.80
2019-03-25T16:34:55.921Z,6.40
2019-03-25T16:37:28.118Z,14.07
2019-03-25T16:40:01.734Z,11.77
2019-03-25T16:42:34.000Z,5.37
2019-03-25T16:45:08.072Z,9.57
2019-03-25T16:47:40.475Z,8.30
2019-03-25T16:50:12.771Z,7.97
2019-03-25T16:52:45.592Z,10.27
2019-03-25T16:55:18.961Z,16.40
2019-03-25T16:57:51.290Z,13.90
2019-03-25T17:00:27.560Z,8.53
2019-03-25T17:02:57.747Z,5.13
2019-03-25T17:05:31.316Z,3.37
2019-03-25T17:08:04.543Z,8.57
2019-03-25T17:10:38.316Z,9.03
2019-03-25T17:13:10.995Z,12.00
2019-03-25T17:15:43.528Z,4.93
2019-03-25T17:18:15.762Z,5.87
2019-03-25T17:20:48.305Z,9.63
2019-03-25T17:23:20.608Z,8.63
2019-03-25T17:25:53.525Z,12.40
2019-03-25T17:28:25.757Z,4.83
2019-03-25T17:30:57.982Z,4.13
2019-03-25T17:33:30.131Z,6.17
2019-03-25T17:36:02.361Z,7.33
2019-03-25T17:38:34.585Z,3.33
2019-03-25T17:41:07.211Z,2.97
2019-03-25T17:43:39.594Z,4.63
2019-03-25T17:46:12.999Z,7.43
2019-03-25T17:48:45.439Z,3.40
2019-03-25T17:51:18.171Z,5.10
2019-03-25T17:53:52.028Z,6.43
2019-03-25T17:56:24.329Z,10.77
2019-03-25T17:58:56.704Z,13.97
2019-03-25T18:01:32.946Z,4.53
2019-03-25T18:04:06.773Z,5.33
2019-03-25T18:06:39.164Z,2.93
2019-03-25T18:09:12.172Z,4.77
2019-03-25T18:11:44.602Z,5.97
2019-03-25T18:14:17.170Z,5.33
2019-03-25T18:16:49.486Z,2.93
2019-03-25T18:19:21.720Z,2.80
2019-03-25T18:21:53.957Z,3.07
2019-03-25T18:24:26.567Z,3.13
2019-03-25T18:26:58.819Z,2.53
2019-03-25T18:29:31.699Z,2.27
2019-03-25T18:32:04.061Z,2.60
2019-03-25T18:34:36.255Z,2.43
2019-03-25T18:37:08.458Z,2.23
2019-03-25T18:39:40.729Z,2.57
2019-03-25T18:42:14.168Z,2.60
2019-03-25T18:44:46.530Z,3.70
2019-03-25T18:47:18.807Z,2.10
2019-03-25T18:49:52.457Z,2.97
2019-03-25T18:52:25.652Z,2.43
2019-03-25T18:55:00.524Z,3.53
2019-03-25T18:57:33.521Z,3.27
2019-03-25T19:00:06.850Z,3.10
2019-03-25T19:02:39.277Z,2.97
2019-03-25T19:05:11.692Z,2.83
2019-03-25T19:07:47.938Z,3.20
2019-03-25T19:10:27.949Z,3.50
2019-03-25T19:13:01.862Z,4.70
2019-03-25T19:15:34.306Z,3.87
2019-03-25T19:18:06.432Z,4.20
2019-03-25T19:20:39.711Z,4.00
2019-03-25T19:23:13.347Z,4.07
2019-03-25T19:25:45.522Z,4.90
2019-03-25T19:28:19.573Z,5.57
2019-03-25T19:30:51.891Z,5.30
2019-03-25T19:33:24.547Z,4.50
2019-03-25T19:35:56.982Z,5.33
2019-03-25T19:38:29.498Z,6.37
2019-03-25T19:41:01.835Z,6.47
2019-03-25T19:43:34.185Z,6.87
2019-03-25T19:46:06.501Z,9.00
2019-03-25T19:48:38.797Z,7.53
2019-03-25T19:51:11.347Z,8.83
2019-03-25T19:53:43.646Z,8.60
2019-03-25T19:56:15.867Z,8.17
2019-03-25T19:58:49.043Z,9.57
2019-03-25T20:01:21.370Z,8.60
2019-03-25T20:03:54.857Z,7.67
2019-03-25T20:06:27.201Z,10.37
2019-03-25T20:08:59.479Z,9.47
2019-03-25T20:11:31.905Z,10.87
2019-03-25T20:14:05.180Z,10.63
2019-03-25T20:16:37.567Z,12.47
2019-03-25T20:19:09.831Z,12.00
2019-03-25T20:21:43.706Z,12.67
2019-03-25T20:24:16.782Z,14.63
2019-03-25T20:26:49.113Z,18.10
2019-03-25T20:29:21.618Z,13.93
2019-03-25T20:31:53.887Z,13.00
2019-03-25T20:34:26.092Z,14.30
2019-03-25T20:36:58.366Z,15.07
2019-03-25T20:39:30.858Z,14.53
2019-03-25T20:42:03.697Z,13.20
2019-03-25T20:44:35.991Z,13.83
2019-03-25T20:47:09.488Z,12.23
2019-03-25T20:49:43.416Z,11.03
2019-03-25T20:52:15.649Z,14.50
2019-03-25T20:54:49.232Z,15.50
2019-03-25T20:57:21.637Z,15.40
2019-03-25T20:59:54.606Z,15.30
2019-03-25T21:02:27.069Z,14.03
2019-03-25T21:05:00.710Z,14.07
2019-03-25T21:07:33.206Z,15.30
2019-03-25T21:10:06.620Z,13.23
2019-03-25T21:12:39.194Z,13.37
2019-03-25T21:15:11.813Z,15.33
2019-03-25T21:17:44.336Z,14.07
2019-03-25T21:20:16.795Z,13.77
2019-03-25T21:22:51.573Z,13.63
2019-03-25T21:25:23.893Z,12.53
2019-03-25T21:27:56.233Z,13.60
2019-03-25T21:30:30.260Z,12.70
2019-03-25T21:33:03.071Z,13.00
2019-03-25T21:35:35.341Z,13.57
2019-03-25T21:38:07.912Z,12.93
2019-03-25T21:40:40.229Z,14.17
2019-03-25T21:43:12.530Z,17.20
2019-03-25T21:45:44.989Z,14.33
2019-03-25T21:48:17.964Z,16.93
2019-03-25T21:50:50.536Z,17.23
2019-03-25T21:53:24.969Z,16.57
2019-03-25T21:55:57.897Z,17.10
2019-03-25T21:58:31.828Z,17.27
2019-03-25T22:01:04.335Z,19.57
2019-03-25T22:03:36.785Z,17.93
2019-03-25T22:06:10.297Z,17.47
2019-03-25T22:08:43.263Z,18.53
2019-03-25T22:11:16.631Z,18.77
2019-03-25T22:13:49.093Z,17.53
2019-03-25T22:16:21.319Z,21.47
2019-03-25T22:18:53.622Z,20.70
2019-03-25T22:21:26.114Z,19.13
2019-03-25T22:23:58.562Z,18.33
2019-03-25T22:26:30.958Z,18.03
2019-03-25T22:29:03.268Z,23.57
2019-03-25T22:31:35.549Z,24.23
2019-03-25T22:34:08.305Z,18.87
2019-03-25T22:36:40.498Z,18.63
2019-03-25T22:39:12.768Z,14.37
2019-03-25T22:41:45.053Z,19.07
2019-03-25T22:44:18.508Z,18.17
2019-03-25T22:46:50.604Z,19.83
2019-03-25T22:49:24.172Z,18.90
2019-03-25T22:51:57.403Z,20.40
2019-03-25T22:54:29.629Z,19.93
2019-03-25T22:57:03.030Z,16.53
2019-03-25T22:59:35.329Z,16.77
2019-03-25T23:02:09.013Z,19.77
2019-03-25T23:04:42.154Z,17.27
2019-03-25T23:07:14.569Z,19.10
2019-03-25T23:09:46.872Z,16.97
2019-03-25T23:12:19.195Z,18.10
2019-03-25T23:14:51.518Z,17.57
2019-03-25T23:17:23.757Z,14.87
2019-03-25T23:19:57.305Z,15.37
2019-03-25T23:22:30.223Z,14.67
2019-03-25T23:25:03.073Z,15.90
2019-03-25T23:27:35.224Z,16.50
2019-03-25T23:30:11.126Z,15.00
2019-03-25T23:32:44.577Z,14.87
2019-03-25T23:35:17.076Z,15.10
2019-03-25T23:37:49.990Z,16.07
2019-03-25T23:40:22.807Z,16.10
2019-03-25T23:42:56.293Z,14.00
2019-03-25T23:45:29.214Z,13.13
2019-03-25T23:48:01.726Z,14.07
2019-03-25T23:50:36.579Z,12.13
2019-03-25T23:53:08.915Z,12.17
2019-03-25T23:55:41.289Z,11.77
2019-03-25T23:58:13.610Z,11.10
